DIRECCIÓN GENERAL DE AERONÁUTICA CIVIL
DIRECCIÓN METEOROLÓGICA DE CHILE
INFORMACIÓN METAR Y TAF

FIR SANTIAGO

Estación: SCSE
METAR SCSE 272300Z VRB03KT 9999 SCT027 SCT180 BKN250 13/09 Q1018=

TAF COR SCSE 272229Z 2800/2824 25008KT 9999 BKN025 SCT180 TX16/2819Z TN10/2810Z BECMG 2802/2804 13004KT BECMG 2804/2806 VRB02KT FEW015 BKN025 TEMPO 2808/2812 BKN012 BECMG 2815/2817 30010KT SCT030 BECMG 2818/2820 CAVOK=

Estación: SCER
METAR SCER 161100Z 00000KT 7000 OVC014 12/10 Q1015=

TAF SCER NIL=

Estación: SCRD
METAR SCRD 272200Z 20009KT 9999 SCT040 BKN080 11/05 Q1019=

TAF AMD SCRD 271918Z 2720/2724 35005KT 9999 SCT018 SCT080 TX12/2719Z=

Estación: SCVM
METAR SCVM 280200Z 26003KT 9999 SCT025 BKN070 10/07 Q1021=

TAF SCVM 272215Z 2800/2824 33008KT 9999 BKN040 BKN070 TX17/2818Z TN08/2810Z BECMG 2802/2804 13004KT BECMG 2808/2810 SCT040 BKN070 TEMPO 2808/2812 VRB02KT BECMG 2812/2814 SCT070 BECMG 2816/2818 30008KT CAVOK=

Estación: SCTB
METAR SCTB 272200Z 20004KT 7000 OVC050 12/06 Q1019=

TAF AMD SCTB 271529Z 2716/2724 23005KT 8000 BKN120 TX15/2718Z TN12/ 2723Z BECMG 2721/2723 SCT040 BKN100=

Estación: SCEL
METAR SCEL 280200Z 16004KT 9999 SCT030 BKN120 11/05 Q1020 NOSIG=

TAF SCEL 272215Z 2800/2824 18005KT 8000 SCT050 BKN120 TX18/2818Z TN09 /2810Z BECMG 2805/2807 VRB02KT TEMPO 2810/2812 5000 HZ BECMG 2815/ 2817 20008KT BKN150 BECMG 2818/2820 CAVOK=

Estación: SCSN
METAR SCSN 280200Z AUTO 00000KT 9999 BKN039 08/06 Q1021=

TAF AMD SCSN 271926Z 2720/2724 24010KT 9999 BKN040 TX13/2718Z TN11/ 2724Z=

Estación: SCRG
METAR SCRG 262000Z 20011KT 7000 FEW040 BKN100 13/07 Q1016=

TAF AMD SCRG 261506Z 2616/2624 20012KT 5000 HZ SCT010 TX13/2618Z TN09 /2616Z BECMG 2615/2617 19010KT 7000=

Estación: SCIC
METAR SCIC 280200Z AUTO 19003KT 170V230 9999 FEW039 07/04 Q1020=

TAF SCIC 271100Z 2712/2724 21006KT 9999 BKN020 TX14/2718Z TN07/2712Z TEMPO 2712/2714 3000 BR BKN008 BECMG 2716/2718 SCT035 BECMG 2718/2720 22012KT CAVOK=

Estación: SCCH
METAR SCCH 280200Z AUTO 24004KT 9999 NCD 06/04 Q1021=

TAF AMD SCCH 271924Z 2720/2724 02004KT CAVOK TX13/2720Z TN11/2723Z=

Estación: SCIE
METAR SCIE 280200Z 11001KT CAVOK 07/05 Q1022=

TAF SCIE 272219Z 2800/2824 22005KT CAVOK TX13/2818Z TN06/2810Z BECMG 2802/2804 SCT020 BKN150 BECMG 2806/2808 BKN020 SCT100 BECMG 2815/2817 21008KT SCT040=

Estación: SCGE
METAR SCGE 272100Z 36006KT 9999 FEW025 SCT100 BKN200 13/05 Q1021=

TAF AMD SCGE 271420Z 2715/2724 20006KT 9999 BKN010 TX11/2719Z TN04/ 2715Z=


Volver